»·PEaware :: N902SQ KRAL-KSLC

N902SQ :: KRAL-KSLC

FLIGHT INFORMATION

Flight Status: Arrived
Operator: Privately registered:
United States
More flights under this callsign
Pilot: Gabor H. (24209)
Aircraft: SOCATA TBM-900
(TBM9)
More flights by this aircraft type
Origin: KRAL Riverside Mun
United States
Destination: KSLC Salt Lake City Intl
United States
More flights between these airports :: More routes between these airports
Route: RAL2 PDZ V442 APLES V394 DAG J146 LAS J9 MLF V235 FFU
File this flight plan on PilotEdge
Remarks:
Altitude:
(Current/Filed)
31,000ft
Speed:
(Current/Filed)
315kts
Departed: 01-Dec-23 11:21 AM
Arrived: 01-Dec-23 01:29 PM
Distance/Time
Traveled:
486nm/2:07
Distance/Time
To Go:
Arrived

Flight Plot

Page will automatically refresh every two minutes.

Flight plan parsing failed; only flown route is shown


Map Options




Map Legend


Flown Route
Filed Route
Departure Airport
Arrival Airport
Navaid (VOR, NDB)
Fix

Horizontal Profiles

Position Reports

Time Latitude Longitude Heading Altitude Ground
Speed
01-Dec-23 11:05 33.950239 -117.443029 89 818ft 0kts
01-Dec-23 11:06 33.950239 -117.443029 89 818ft 0kts
01-Dec-23 11:07 33.950239 -117.443029 89 818ft 0kts
01-Dec-23 11:08 33.950239 -117.443029 89 818ft 0kts
01-Dec-23 11:09 33.950239 -117.443029 89 818ft 0kts
01-Dec-23 11:10 33.950239 -117.443029 89 818ft 0kts
01-Dec-23 11:11 33.950239 -117.443029 89 818ft 0kts
01-Dec-23 11:12 33.950239 -117.443029 89 818ft 0kts
01-Dec-23 11:13 33.950239 -117.443029 89 818ft 0kts
01-Dec-23 11:14 33.950239 -117.443029 89 818ft 0kts
01-Dec-23 11:15 33.950239 -117.443029 89 818ft 0kts
01-Dec-23 11:16 33.950239 -117.443029 89 818ft 0kts
01-Dec-23 11:17 33.950251 -117.442882 67 818ft 5kts
01-Dec-23 11:18 33.950638 -117.439191 105 818ft 13kts
01-Dec-23 11:19 33.949891 -117.435248 89 818ft 4kts
01-Dec-23 11:20 33.951029 -117.436967 282 818ft 61kts
01-Dec-23 11:21 33.953921 -117.476060 266 2230ft 134kts
01-Dec-23 11:22 33.933629 -117.511542 226 4311ft 136kts
01-Dec-23 11:23 33.918448 -117.547976 313 6415ft 133kts
01-Dec-23 11:24 33.945841 -117.529234 51 8629ft 140kts
01-Dec-23 11:25 33.952760 -117.472628 87 9013ft 199kts
01-Dec-23 11:26 33.985633 -117.440655 18 10710ft 163kts
01-Dec-23 11:27 34.025914 -117.419656 14 12865ft 151kts
01-Dec-23 11:28 34.058128 -117.403020 10 15525ft 105kts
01-Dec-23 11:29 34.089364 -117.387101 11 17232ft 130kts
01-Dec-23 11:30 34.122536 -117.369993 10 19318ft 135kts
01-Dec-23 11:31 34.156946 -117.352268 8 21339ft 139kts
01-Dec-23 11:32 34.192809 -117.333770 7 23507ft 143kts
01-Dec-23 11:33 34.229403 -117.314914 7 25446ft 146kts
01-Dec-23 11:35 34.266919 -117.295551 7 27257ft 151kts
01-Dec-23 11:36 34.305179 -117.275745 7 29225ft 151kts
01-Dec-23 11:37 34.344246 -117.255537 7 30801ft 157kts
01-Dec-23 11:38 34.391044 -117.231373 10 31148ft 216kts
01-Dec-23 11:39 34.450361 -117.200563 11 31110ft 245kts
01-Dec-23 11:40 34.514794 -117.167050 12 31098ft 257kts
01-Dec-23 11:41 34.574701 -117.114054 35 31096ft 287kts
01-Dec-23 11:42 34.627634 -117.041006 35 31089ft 289kts
01-Dec-23 11:43 34.680933 -116.967737 35 31089ft 290kts
01-Dec-23 11:44 34.734239 -116.894312 35 31088ft 291kts
01-Dec-23 11:45 34.787736 -116.820472 35 31088ft 291kts
01-Dec-23 11:46 34.841219 -116.746486 35 31088ft 292kts
01-Dec-23 11:47 34.894705 -116.672336 35 31087ft 291kts
01-Dec-23 11:48 34.948033 -116.598247 35 31085ft 291kts
01-Dec-23 11:49 35.003199 -116.527494 32 31073ft 287kts
01-Dec-23 11:50 35.059260 -116.457642 32 31052ft 288kts
01-Dec-23 11:51 35.115507 -116.387421 32 31058ft 290kts
01-Dec-23 11:52 35.171985 -116.316752 33 31048ft 292kts
01-Dec-23 11:53 35.228607 -116.245747 33 31048ft 292kts
01-Dec-23 11:54 35.285134 -116.174714 33 31047ft 292kts
01-Dec-23 11:55 35.341715 -116.103468 33 31048ft 292kts
01-Dec-23 11:56 35.398211 -116.032164 33 31047ft 292kts
01-Dec-23 11:57 35.454740 -115.960687 33 31047ft 293kts
01-Dec-23 11:58 35.511456 -115.888791 33 31047ft 294kts
01-Dec-23 11:59 35.568205 -115.816702 33 31053ft 294kts
01-Dec-23 12:00 35.625047 -115.744347 33 31058ft 294kts
01-Dec-23 12:00 35.672459 -115.683872 33 31062ft 294kts
01-Dec-23 12:02 35.738707 -115.599184 33 31063ft 295kts
01-Dec-23 12:02 35.785952 -115.538649 33 31063ft 295kts
01-Dec-23 12:03 35.842928 -115.465514 34 31063ft 296kts
01-Dec-23 12:05 35.909586 -115.379749 34 31048ft 297kts
01-Dec-23 12:06 35.966730 -115.306025 35 31040ft 298kts
01-Dec-23 12:06 36.014597 -115.244146 35 31042ft 298kts
01-Dec-23 12:07 36.071807 -115.170060 35 31033ft 299kts
01-Dec-23 12:08 36.129982 -115.096297 35 31024ft 301kts
01-Dec-23 12:10 36.198595 -115.009390 35 31003ft 304kts
01-Dec-23 12:10 36.248040 -114.946609 35 30994ft 306kts
01-Dec-23 12:11 36.307566 -114.870910 35 31036ft 308kts
01-Dec-23 12:12 36.367993 -114.793584 37 30985ft 316kts
01-Dec-23 12:13 36.428784 -114.714500 36 31012ft 319kts
01-Dec-23 12:14 36.490161 -114.634462 37 30993ft 319kts
01-Dec-23 12:15 36.551242 -114.554581 37 31016ft 320kts
01-Dec-23 12:16 36.612753 -114.474013 37 30996ft 322kts
01-Dec-23 12:17 36.674306 -114.393073 38 30995ft 322kts
01-Dec-23 12:18 36.735642 -114.312276 37 30994ft 322kts
01-Dec-23 12:19 36.804535 -114.246192 23 30957ft 310kts
01-Dec-23 12:20 36.877309 -114.189972 23 31036ft 308kts
01-Dec-23 12:21 36.950202 -114.133481 23 30948ft 310kts
01-Dec-23 12:22 37.022343 -114.077468 23 31015ft 303kts
01-Dec-23 12:23 37.093561 -114.022055 23 31019ft 301kts
01-Dec-23 12:24 37.164993 -113.966376 23 31019ft 305kts
01-Dec-23 12:25 37.237597 -113.909613 23 30994ft 309kts
01-Dec-23 12:26 37.310449 -113.852537 23 30975ft 310kts
01-Dec-23 12:27 37.383327 -113.795311 23 30974ft 309kts
01-Dec-23 12:28 37.456041 -113.738082 23 30974ft 309kts
01-Dec-23 12:29 37.528570 -113.680867 23 30974ft 308kts
01-Dec-23 12:30 37.600946 -113.623636 23 30974ft 308kts
01-Dec-23 12:31 37.673583 -113.566067 23 30974ft 308kts
01-Dec-23 12:32 37.745911 -113.508609 23 30974ft 308kts
01-Dec-23 12:33 37.818194 -113.451050 23 30974ft 308kts
01-Dec-23 12:34 37.890754 -113.393136 23 30974ft 309kts
01-Dec-23 12:35 37.963234 -113.334912 24 30966ft 309kts
01-Dec-23 12:36 38.035502 -113.276692 24 30966ft 308kts
01-Dec-23 12:37 38.107916 -113.218205 24 30971ft 308kts
01-Dec-23 12:38 38.180077 -113.159786 24 30973ft 309kts
01-Dec-23 12:39 38.252703 -113.100870 24 30974ft 310kts
01-Dec-23 12:40 38.325135 -113.041928 24 30972ft 311kts
01-Dec-23 12:41 38.400756 -112.991759 14 30972ft 304kts
01-Dec-23 12:42 38.478883 -112.950148 14 30970ft 305kts
01-Dec-23 12:43 38.557021 -112.908439 14 30978ft 305kts
01-Dec-23 12:44 38.635183 -112.866615 14 30986ft 305kts
01-Dec-23 12:45 38.713522 -112.824601 14 30994ft 306kts
01-Dec-23 12:46 38.791613 -112.782619 14 31000ft 306kts
01-Dec-23 12:47 38.869879 -112.740443 14 30998ft 306kts
01-Dec-23 12:48 38.948349 -112.698053 14 30993ft 305kts
01-Dec-23 12:49 39.026419 -112.655787 14 30999ft 305kts
01-Dec-23 12:50 39.104323 -112.613485 14 30994ft 305kts
01-Dec-23 12:51 39.183130 -112.570627 14 30476ft 321kts
01-Dec-23 12:52 39.268760 -112.523928 15 28680ft 347kts
01-Dec-23 12:53 39.356734 -112.474405 16 26826ft 343kts
01-Dec-23 12:54 39.443053 -112.424883 17 25033ft 340kts
01-Dec-23 12:55 39.529788 -112.375002 18 23229ft 343kts
01-Dec-23 12:56 39.616223 -112.325131 19 21418ft 338kts
01-Dec-23 12:57 39.701184 -112.276004 20 19648ft 333kts
01-Dec-23 12:58 39.784737 -112.227523 20 17901ft 327kts
01-Dec-23 12:59 39.867242 -112.179476 20 16187ft 327kts
01-Dec-23 13:00 39.948724 -112.131964 19 14482ft 316kts
01-Dec-23 13:01 40.025653 -112.086952 19 14005ft 287kts
01-Dec-23 13:02 40.099497 -112.055295 356 13436ft 281kts
01-Dec-23 13:03 40.176168 -112.052988 355 12437ft 272kts
01-Dec-23 13:04 40.252447 -112.050477 356 11434ft 277kts
01-Dec-23 13:05 40.329096 -112.049382 356 10997ft 269kts
01-Dec-23 13:06 40.402777 -112.048532 356 11002ft 263kts
01-Dec-23 13:07 40.475588 -112.047649 356 11006ft 262kts
01-Dec-23 13:08 40.548259 -112.046731 356 11004ft 262kts
01-Dec-23 13:09 40.620997 -112.046017 356 11001ft 261kts
01-Dec-23 13:10 40.693508 -112.045399 356 10999ft 261kts
01-Dec-23 13:11 40.766195 -112.044870 356 10999ft 261kts
01-Dec-23 13:12 40.838660 -112.044558 356 10999ft 261kts
01-Dec-23 13:13 40.911177 -112.044229 356 10999ft 261kts
01-Dec-23 13:14 40.983952 -112.043885 356 10999ft 261kts
01-Dec-23 13:15 41.056393 -112.043692 356 11000ft 261kts
01-Dec-23 13:16 41.129345 -112.043704 356 10999ft 262kts
01-Dec-23 13:17 41.201376 -112.043713 358 10995ft 254kts
01-Dec-23 13:18 41.216222 -111.974125 148 10985ft 251kts
01-Dec-23 13:19 41.150139 -111.963272 180 10963ft 231kts
01-Dec-23 13:20 41.089021 -111.962158 182 10129ft 213kts
01-Dec-23 13:21 41.032548 -111.961896 181 8667ft 192kts
01-Dec-23 13:22 40.987493 -111.962024 182 7513ft 153kts
01-Dec-23 13:23 40.946959 -111.962097 180 5996ft 129kts
01-Dec-23 13:24 40.903097 -111.962105 181 5997ft 162kts
01-Dec-23 13:25 40.857244 -111.962108 181 5422ft 157kts
01-Dec-23 13:26 40.817516 -111.962091 180 4649ft 118kts
01-Dec-23 13:27 40.788292 -111.962070 182 4230ft 42kts
01-Dec-23 13:28 40.783937 -111.960001 179 4230ft 21kts
01-Dec-23 13:29 40.777499 -111.960600 181 4230ft 17kts
01-Dec-23 13:30 40.777542 -111.959073 89 4230ft 7kts
01-Dec-23 13:31 40.777259 -111.958958 179 4230ft 0kts
01-Dec-23 13:32 40.777259 -111.958958 179 4230ft 0kts
01-Dec-23 13:33 40.777259 -111.958958 179 4230ft 0kts
01-Dec-23 13:34 40.777259 -111.958958 179 4230ft 0kts
01-Dec-23 13:35 40.777259 -111.958958 179 4230ft 0kts
01-Dec-23 13:36 40.777259 -111.958958 179 4230ft 0kts

Navigation Log

Ident Type
Flight plan parsing failed, navigation log unavailable